sensor_id;sensor_type;location;lat;lon;timestamp;P1;durP1;ratioP1;P2;durP2;ratioP2
13388;SDS011;6764;53.250;10.410;2022-10-16T00:01:41;5.60;;;5.10;;
13388;SDS011;6764;53.250;10.410;2022-10-16T00:04:08;6.38;;;5.78;;
13388;SDS011;6764;53.250;10.410;2022-10-16T00:06:33;5.53;;;4.83;;
13388;SDS011;6764;53.250;10.410;2022-10-16T00:08:59;7.97;;;5.00;;
13388;SDS011;6764;53.250;10.410;2022-10-16T00:11:26;7.03;;;5.90;;
13388;SDS011;6764;53.250;10.410;2022-10-16T00:13:57;5.60;;;5.20;;
13388;SDS011;6764;53.250;10.410;2022-10-16T00:16:25;6.57;;;4.97;;
13388;SDS011;6764;53.250;10.410;2022-10-16T00:18:51;5.70;;;4.83;;
13388;SDS011;6764;53.250;10.410;2022-10-16T00:21:19;9.02;;;6.85;;
13388;SDS011;6764;53.250;10.410;2022-10-16T00:23:46;6.30;;;5.70;;
13388;SDS011;6764;53.250;10.410;2022-10-16T00:26:15;6.20;;;5.50;;
13388;SDS011;6764;53.250;10.410;2022-10-16T00:28:42;5.50;;;5.00;;
13388;SDS011;6764;53.250;10.410;2022-10-16T00:31:10;5.80;;;4.90;;
13388;SDS011;6764;53.250;10.410;2022-10-16T00:33:37;7.47;;;5.43;;
13388;SDS011;6764;53.250;10.410;2022-10-16T00:36:04;5.20;;;4.70;;
13388;SDS011;6764;53.250;10.410;2022-10-16T00:38:31;5.83;;;5.33;;
13388;SDS011;6764;53.250;10.410;2022-10-16T00:40:57;5.30;;;4.73;;
13388;SDS011;6764;53.250;10.410;2022-10-16T00:46:19;5.07;;;4.67;;
13388;SDS011;6764;53.250;10.410;2022-10-16T00:49:05;5.57;;;4.50;;
13388;SDS011;6764;53.250;10.410;2022-10-16T00:51:46;5.43;;;4.30;;
13388;SDS011;6764;53.250;10.410;2022-10-16T00:54:19;4.90;;;3.87;;
13388;SDS011;6764;53.250;10.410;2022-10-16T00:56:47;6.93;;;4.47;;
13388;SDS011;6764;53.250;10.410;2022-10-16T00:59:18;4.43;;;4.03;;
13388;SDS011;6764;53.250;10.410;2022-10-16T01:01:47;12.73;;;4.57;;
13388;SDS011;6764;53.250;10.410;2022-10-16T01:04:13;5.73;;;4.00;;
13388;SDS011;6764;53.250;10.410;2022-10-16T01:15:37;6.30;;;3.30;;
13388;SDS011;6764;53.250;10.410;2022-10-16T01:18:14;5.20;;;3.10;;
13388;SDS011;6764;53.250;10.410;2022-10-16T01:21:01;3.87;;;2.87;;
13388;SDS011;6764;53.250;10.410;2022-10-16T01:26:30;3.67;;;3.10;;
13388;SDS011;6764;53.250;10.410;2022-10-16T01:29:10;2.90;;;2.70;;
13388;SDS011;6764;53.250;10.410;2022-10-16T01:31:50;4.57;;;2.60;;
13388;SDS011;6764;53.250;10.410;2022-10-16T01:34:22;3.43;;;2.60;;
13388;SDS011;6764;53.250;10.410;2022-10-16T01:36:59;5.10;;;2.80;;
13388;SDS011;6764;53.250;10.410;2022-10-16T01:39:30;4.57;;;2.90;;
13388;SDS011;6764;53.250;10.410;2022-10-16T01:42:43;5.10;;;2.90;;
13388;SDS011;6764;53.250;10.410;2022-10-16T01:44:56;3.20;;;2.60;;
13388;SDS011;6764;53.250;10.410;2022-10-16T01:47:24;4.13;;;2.70;;
13388;SDS011;6764;53.250;10.410;2022-10-16T01:49:51;3.10;;;2.30;;
13388;SDS011;6764;53.250;10.410;2022-10-16T01:52:20;3.23;;;2.40;;
13388;SDS011;6764;53.250;10.410;2022-10-16T01:54:50;3.37;;;2.60;;
13388;SDS011;6764;53.250;10.410;2022-10-16T01:57:18;2.33;;;2.03;;
13388;SDS011;6764;53.250;10.410;2022-10-16T01:59:47;4.70;;;2.33;;
13388;SDS011;6764;53.250;10.410;2022-10-16T02:02:17;4.93;;;2.20;;
13388;SDS011;6764;53.250;10.410;2022-10-16T02:04:48;2.77;;;2.23;;
13388;SDS011;6764;53.250;10.410;2022-10-16T02:07:18;2.43;;;2.10;;
13388;SDS011;6764;53.250;10.410;2022-10-16T02:09:43;4.07;;;2.77;;
13388;SDS011;6764;53.250;10.410;2022-10-16T02:12:11;4.57;;;2.40;;
13388;SDS011;6764;53.250;10.410;2022-10-16T02:14:40;2.83;;;2.10;;
13388;SDS011;6764;53.250;10.410;2022-10-16T02:17:13;3.47;;;1.97;;
13388;SDS011;6764;53.250;10.410;2022-10-16T02:19:40;2.27;;;2.07;;
13388;SDS011;6764;53.250;10.410;2022-10-16T02:22:08;3.53;;;2.57;;
13388;SDS011;6764;53.250;10.410;2022-10-16T02:24:57;3.53;;;1.83;;
13388;SDS011;6764;53.250;10.410;2022-10-16T02:30:01;4.40;;;2.10;;
13388;SDS011;6764;53.250;10.410;2022-10-16T02:32:48;3.27;;;1.90;;
13388;SDS011;6764;53.250;10.410;2022-10-16T02:35:16;4.03;;;1.83;;
13388;SDS011;6764;53.250;10.410;2022-10-16T02:37:43;2.20;;;1.80;;
13388;SDS011;6764;53.250;10.410;2022-10-16T02:40:11;4.30;;;2.00;;
13388;SDS011;6764;53.250;10.410;2022-10-16T02:42:38;2.53;;;1.80;;
13388;SDS011;6764;53.250;10.410;2022-10-16T02:45:05;3.13;;;2.00;;
13388;SDS011;6764;53.250;10.410;2022-10-16T02:47:32;2.60;;;2.03;;
13388;SDS011;6764;53.250;10.410;2022-10-16T02:49:58;3.37;;;1.90;;
13388;SDS011;6764;53.250;10.410;2022-10-16T02:52:24;3.00;;;1.67;;
13388;SDS011;6764;53.250;10.410;2022-10-16T02:54:50;3.47;;;1.87;;
13388;SDS011;6764;53.250;10.410;2022-10-16T02:57:16;2.37;;;1.80;;
13388;SDS011;6764;53.250;10.410;2022-10-16T02:59:42;3.77;;;2.30;;
13388;SDS011;6764;53.250;10.410;2022-10-16T03:02:07;3.00;;;1.80;;
13388;SDS011;6764;53.250;10.410;2022-10-16T03:04:33;5.33;;;2.10;;
13388;SDS011;6764;53.250;10.410;2022-10-16T03:06:59;3.10;;;2.20;;
13388;SDS011;6764;53.250;10.410;2022-10-16T03:09:24;5.47;;;2.00;;
13388;SDS011;6764;53.250;10.410;2022-10-16T03:11:50;4.53;;;2.37;;
13388;SDS011;6764;53.250;10.410;2022-10-16T03:14:15;2.60;;;1.80;;
13388;SDS011;6764;53.250;10.410;2022-10-16T03:16:41;4.23;;;2.27;;
13388;SDS011;6764;53.250;10.410;2022-10-16T03:19:07;3.87;;;1.80;;
13388;SDS011;6764;53.250;10.410;2022-10-16T03:21:32;4.13;;;2.07;;
13388;SDS011;6764;53.250;10.410;2022-10-16T03:23:58;2.53;;;2.10;;
13388;SDS011;6764;53.250;10.410;2022-10-16T03:26:23;6.10;;;1.83;;
13388;SDS011;6764;53.250;10.410;2022-10-16T03:28:49;3.43;;;1.90;;
13388;SDS011;6764;53.250;10.410;2022-10-16T03:31:14;3.53;;;2.00;;
13388;SDS011;6764;53.250;10.410;2022-10-16T03:33:40;3.60;;;1.90;;
13388;SDS011;6764;53.250;10.410;2022-10-16T03:36:05;6.37;;;2.10;;
13388;SDS011;6764;53.250;10.410;2022-10-16T03:38:31;4.70;;;2.13;;
13388;SDS011;6764;53.250;10.410;2022-10-16T03:40:57;2.87;;;2.23;;
13388;SDS011;6764;53.250;10.410;2022-10-16T03:43:23;4.37;;;2.43;;
13388;SDS011;6764;53.250;10.410;2022-10-16T03:45:49;2.77;;;1.90;;
13388;SDS011;6764;53.250;10.410;2022-10-16T03:48:16;4.07;;;2.03;;
13388;SDS011;6764;53.250;10.410;2022-10-16T03:50:42;2.63;;;1.80;;
13388;SDS011;6764;53.250;10.410;2022-10-16T03:53:08;2.80;;;2.03;;
13388;SDS011;6764;53.250;10.410;2022-10-16T03:55:34;2.60;;;1.90;;
13388;SDS011;6764;53.250;10.410;2022-10-16T03:58:00;4.70;;;2.20;;
13388;SDS011;6764;53.250;10.410;2022-10-16T04:00:26;5.33;;;1.80;;
13388;SDS011;6764;53.250;10.410;2022-10-16T04:02:52;4.40;;;2.00;;
13388;SDS011;6764;53.250;10.410;2022-10-16T04:05:17;3.27;;;1.90;;
13388;SDS011;6764;53.250;10.410;2022-10-16T04:07:43;3.23;;;2.07;;
13388;SDS011;6764;53.250;10.410;2022-10-16T04:10:08;6.30;;;2.13;;
13388;SDS011;6764;53.250;10.410;2022-10-16T04:12:34;4.13;;;2.10;;
13388;SDS011;6764;53.250;10.410;2022-10-16T04:15:00;5.57;;;2.00;;
13388;SDS011;6764;53.250;10.410;2022-10-16T04:17:25;5.77;;;2.10;;
13388;SDS011;6764;53.250;10.410;2022-10-16T04:19:51;3.97;;;2.10;;
13388;SDS011;6764;53.250;10.410;2022-10-16T04:22:16;4.63;;;2.00;;
13388;SDS011;6764;53.250;10.410;2022-10-16T04:24:42;3.47;;;2.20;;
13388;SDS011;6764;53.250;10.410;2022-10-16T04:27:07;5.27;;;2.60;;
13388;SDS011;6764;53.250;10.410;2022-10-16T04:29:33;2.80;;;2.10;;
13388;SDS011;6764;53.250;10.410;2022-10-16T04:31:58;3.73;;;1.77;;
13388;SDS011;6764;53.250;10.410;2022-10-16T04:34:24;2.73;;;1.73;;
13388;SDS011;6764;53.250;10.410;2022-10-16T04:36:50;4.93;;;2.20;;
13388;SDS011;6764;53.250;10.410;2022-10-16T04:39:16;2.47;;;1.87;;
13388;SDS011;6764;53.250;10.410;2022-10-16T04:41:41;4.20;;;2.50;;
13388;SDS011;6764;53.250;10.410;2022-10-16T04:44:07;3.43;;;2.07;;
13388;SDS011;6764;53.250;10.410;2022-10-16T04:46:33;3.77;;;2.40;;
13388;SDS011;6764;53.250;10.410;2022-10-16T04:48:58;9.20;;;2.30;;
13388;SDS011;6764;53.250;10.410;2022-10-16T04:51:24;4.10;;;2.53;;
13388;SDS011;6764;53.250;10.410;2022-10-16T04:53:50;5.17;;;2.50;;
13388;SDS011;6764;53.250;10.410;2022-10-16T04:56:16;3.87;;;2.07;;
13388;SDS011;6764;53.250;10.410;2022-10-16T04:58:42;2.87;;;2.10;;
13388;SDS011;6764;53.250;10.410;2022-10-16T05:01:07;5.53;;;2.50;;
13388;SDS011;6764;53.250;10.410;2022-10-16T05:03:33;3.90;;;2.60;;
13388;SDS011;6764;53.250;10.410;2022-10-16T05:05:58;4.10;;;2.50;;
13388;SDS011;6764;53.250;10.410;2022-10-16T05:08:24;8.20;;;2.50;;
13388;SDS011;6764;53.250;10.410;2022-10-16T05:10:50;3.20;;;2.13;;
13388;SDS011;6764;53.250;10.410;2022-10-16T05:13:15;4.13;;;2.40;;
13388;SDS011;6764;53.250;10.410;2022-10-16T05:15:41;3.17;;;2.37;;
13388;SDS011;6764;53.250;10.410;2022-10-16T05:18:06;3.47;;;2.27;;
13388;SDS011;6764;53.250;10.410;2022-10-16T05:20:33;5.27;;;2.57;;
13388;SDS011;6764;53.250;10.410;2022-10-16T05:22:59;6.47;;;2.10;;
13388;SDS011;6764;53.250;10.410;2022-10-16T05:25:24;6.27;;;2.70;;
13388;SDS011;6764;53.250;10.410;2022-10-16T05:27:50;3.63;;;2.70;;
13388;SDS011;6764;53.250;10.410;2022-10-16T05:30:16;8.63;;;2.63;;
13388;SDS011;6764;53.250;10.410;2022-10-16T05:32:46;7.27;;;2.93;;
13388;SDS011;6764;53.250;10.410;2022-10-16T05:35:15;2.27;;;2.07;;
13388;SDS011;6764;53.250;10.410;2022-10-16T05:37:42;6.57;;;2.67;;
13388;SDS011;6764;53.250;10.410;2022-10-16T05:40:08;4.83;;;2.67;;
13388;SDS011;6764;53.250;10.410;2022-10-16T05:42:35;3.73;;;2.63;;
13388;SDS011;6764;53.250;10.410;2022-10-16T05:45:00;7.30;;;2.80;;
13388;SDS011;6764;53.250;10.410;2022-10-16T05:47:26;3.93;;;2.00;;
13388;SDS011;6764;53.250;10.410;2022-10-16T05:49:52;5.87;;;2.50;;
13388;SDS011;6764;53.250;10.410;2022-10-16T05:52:18;3.60;;;2.53;;
13388;SDS011;6764;53.250;10.410;2022-10-16T05:54:43;5.20;;;3.17;;
13388;SDS011;6764;53.250;10.410;2022-10-16T05:57:09;5.13;;;2.50;;
13388;SDS011;6764;53.250;10.410;2022-10-16T05:59:35;7.70;;;2.50;;
13388;SDS011;6764;53.250;10.410;2022-10-16T06:02:00;3.57;;;2.57;;
13388;SDS011;6764;53.250;10.410;2022-10-16T06:04:26;4.87;;;2.30;;
13388;SDS011;6764;53.250;10.410;2022-10-16T06:06:51;6.07;;;2.73;;
13388;SDS011;6764;53.250;10.410;2022-10-16T06:09:17;5.13;;;2.90;;
13388;SDS011;6764;53.250;10.410;2022-10-16T06:11:42;5.80;;;2.63;;
13388;SDS011;6764;53.250;10.410;2022-10-16T06:14:08;3.67;;;2.50;;
13388;SDS011;6764;53.250;10.410;2022-10-16T06:16:35;4.90;;;2.63;;
13388;SDS011;6764;53.250;10.410;2022-10-16T06:19:02;2.87;;;2.23;;
13388;SDS011;6764;53.250;10.410;2022-10-16T06:21:31;5.77;;;2.60;;
13388;SDS011;6764;53.250;10.410;2022-10-16T06:23:57;3.57;;;2.63;;
13388;SDS011;6764;53.250;10.410;2022-10-16T06:26:27;5.80;;;2.93;;
13388;SDS011;6764;53.250;10.410;2022-10-16T06:28:55;3.10;;;2.30;;
13388;SDS011;6764;53.250;10.410;2022-10-16T06:31:21;2.53;;;2.30;;
13388;SDS011;6764;53.250;10.410;2022-10-16T06:33:50;4.87;;;2.33;;
13388;SDS011;6764;53.250;10.410;2022-10-16T06:36:16;6.00;;;2.70;;
13388;SDS011;6764;53.250;10.410;2022-10-16T06:38:43;7.73;;;2.90;;
13388;SDS011;6764;53.250;10.410;2022-10-16T06:41:09;5.93;;;2.60;;
13388;SDS011;6764;53.250;10.410;2022-10-16T06:43:37;6.57;;;2.67;;
13388;SDS011;6764;53.250;10.410;2022-10-16T06:46:04;7.50;;;2.77;;
13388;SDS011;6764;53.250;10.410;2022-10-16T06:48:32;3.07;;;2.70;;
13388;SDS011;6764;53.250;10.410;2022-10-16T06:50:59;7.93;;;3.20;;
13388;SDS011;6764;53.250;10.410;2022-10-16T06:53:29;5.73;;;2.80;;
13388;SDS011;6764;53.250;10.410;2022-10-16T06:55:56;6.90;;;2.87;;
13388;SDS011;6764;53.250;10.410;2022-10-16T06:58:22;4.43;;;2.70;;
13388;SDS011;6764;53.250;10.410;2022-10-16T07:00:48;6.43;;;2.90;;
13388;SDS011;6764;53.250;10.410;2022-10-16T07:03:19;5.57;;;3.03;;
13388;SDS011;6764;53.250;10.410;2022-10-16T07:05:45;2.80;;;2.60;;
13388;SDS011;6764;53.250;10.410;2022-10-16T07:08:10;6.23;;;2.73;;
13388;SDS011;6764;53.250;10.410;2022-10-16T07:10:36;4.73;;;3.10;;
13388;SDS011;6764;53.250;10.410;2022-10-16T07:13:01;4.07;;;3.10;;
13388;SDS011;6764;53.250;10.410;2022-10-16T07:15:27;5.90;;;2.83;;
13388;SDS011;6764;53.250;10.410;2022-10-16T07:17:53;5.87;;;2.57;;
13388;SDS011;6764;53.250;10.410;2022-10-16T07:20:19;2.80;;;2.30;;
13388;SDS011;6764;53.250;10.410;2022-10-16T07:22:44;5.43;;;2.40;;
13388;SDS011;6764;53.250;10.410;2022-10-16T07:25:10;5.47;;;2.87;;
13388;SDS011;6764;53.250;10.410;2022-10-16T07:27:37;4.70;;;2.87;;
13388;SDS011;6764;53.250;10.410;2022-10-16T07:30:03;8.17;;;2.47;;
13388;SDS011;6764;53.250;10.410;2022-10-16T07:32:29;3.97;;;2.60;;
13388;SDS011;6764;53.250;10.410;2022-10-16T07:34:56;7.90;;;2.80;;
13388;SDS011;6764;53.250;10.410;2022-10-16T07:37:21;4.43;;;2.40;;
13388;SDS011;6764;53.250;10.410;2022-10-16T07:39:47;4.40;;;3.00;;
13388;SDS011;6764;53.250;10.410;2022-10-16T07:42:13;3.70;;;2.73;;
13388;SDS011;6764;53.250;10.410;2022-10-16T07:44:38;4.03;;;2.63;;
13388;SDS011;6764;53.250;10.410;2022-10-16T07:47:04;4.37;;;2.97;;
13388;SDS011;6764;53.250;10.410;2022-10-16T07:49:30;7.33;;;3.10;;
13388;SDS011;6764;53.250;10.410;2022-10-16T07:51:56;4.47;;;2.57;;
13388;SDS011;6764;53.250;10.410;2022-10-16T07:54:21;5.17;;;2.87;;
13388;SDS011;6764;53.250;10.410;2022-10-16T07:56:47;5.23;;;2.43;;
13388;SDS011;6764;53.250;10.410;2022-10-16T07:59:12;5.67;;;2.73;;
13388;SDS011;6764;53.250;10.410;2022-10-16T08:01:38;3.97;;;2.40;;
13388;SDS011;6764;53.250;10.410;2022-10-16T08:04:04;4.63;;;2.70;;
13388;SDS011;6764;53.250;10.410;2022-10-16T08:06:30;2.63;;;2.10;;
13388;SDS011;6764;53.250;10.410;2022-10-16T08:09:04;4.97;;;2.33;;
13388;SDS011;6764;53.250;10.410;2022-10-16T08:11:30;3.70;;;2.50;;
13388;SDS011;6764;53.250;10.410;2022-10-16T08:13:56;6.27;;;2.60;;
13388;SDS011;6764;53.250;10.410;2022-10-16T08:16:22;2.73;;;1.97;;
13388;SDS011;6764;53.250;10.410;2022-10-16T08:18:48;5.20;;;2.10;;
13388;SDS011;6764;53.250;10.410;2022-10-16T08:21:15;2.00;;;1.80;;
13388;SDS011;6764;53.250;10.410;2022-10-16T08:23:41;3.95;;;2.08;;
13388;SDS011;6764;53.250;10.410;2022-10-16T08:26:07;3.45;;;2.00;;
13388;SDS011;6764;53.250;10.410;2022-10-16T08:28:33;2.55;;;1.88;;
13388;SDS011;6764;53.250;10.410;2022-10-16T08:31:33;2.28;;;1.80;;
13388;SDS011;6764;53.250;10.410;2022-10-16T08:33:52;4.45;;;1.88;;
13388;SDS011;6764;53.250;10.410;2022-10-16T08:36:18;4.10;;;2.00;;
13388;SDS011;6764;53.250;10.410;2022-10-16T08:38:43;2.78;;;2.30;;
13388;SDS011;6764;53.250;10.410;2022-10-16T08:49:54;3.80;;;1.85;;
13388;SDS011;6764;53.250;10.410;2022-10-16T08:52:27;4.38;;;2.15;;
13388;SDS011;6764;53.250;10.410;2022-10-16T08:54:58;4.25;;;2.05;;
13388;SDS011;6764;53.250;10.410;2022-10-16T08:57:24;2.08;;;1.85;;
13388;SDS011;6764;53.250;10.410;2022-10-16T08:59:52;3.35;;;1.90;;
13388;SDS011;6764;53.250;10.410;2022-10-16T09:05:06;1.88;;;1.73;;
13388;SDS011;6764;53.250;10.410;2022-10-16T09:08:25;4.55;;;1.98;;
13388;SDS011;6764;53.250;10.410;2022-10-16T09:10:58;1.92;;;1.80;;
13388;SDS011;6764;53.250;10.410;2022-10-16T09:13:44;3.88;;;1.80;;
13388;SDS011;6764;53.250;10.410;2022-10-16T09:16:35;2.45;;;1.60;;
13388;SDS011;6764;53.250;10.410;2022-10-16T09:21:38;1.83;;;1.60;;
13388;SDS011;6764;53.250;10.410;2022-10-16T09:26:38;4.93;;;2.50;;
13388;SDS011;6764;53.250;10.410;2022-10-16T09:29:04;4.25;;;2.38;;
13388;SDS011;6764;53.250;10.410;2022-10-16T09:31:29;1.95;;;1.73;;
13388;SDS011;6764;53.250;10.410;2022-10-16T09:33:57;2.83;;;1.85;;
13388;SDS011;6764;53.250;10.410;2022-10-16T09:36:25;2.45;;;1.60;;
13388;SDS011;6764;53.250;10.410;2022-10-16T09:39:05;3.83;;;1.50;;
13388;SDS011;6764;53.250;10.410;2022-10-16T09:41:34;3.20;;;1.65;;
13388;SDS011;6764;53.250;10.410;2022-10-16T09:44:01;3.00;;;1.63;;
13388;SDS011;6764;53.250;10.410;2022-10-16T09:46:32;3.92;;;1.35;;
13388;SDS011;6764;53.250;10.410;2022-10-16T09:49:01;2.95;;;1.30;;
13388;SDS011;6764;53.250;10.410;2022-10-16T09:51:30;1.30;;;1.17;;
13388;SDS011;6764;53.250;10.410;2022-10-16T09:54:01;2.25;;;1.10;;
13388;SDS011;6764;53.250;10.410;2022-10-16T09:56:38;2.33;;;1.17;;
13388;SDS011;6764;53.250;10.410;2022-10-16T09:59:17;1.95;;;1.02;;
13388;SDS011;6764;53.250;10.410;2022-10-16T10:01:46;2.38;;;1.23;;
13388;SDS011;6764;53.250;10.410;2022-10-16T10:04:17;4.55;;;1.27;;
13388;SDS011;6764;53.250;10.410;2022-10-16T10:09:17;4.07;;;1.33;;
13388;SDS011;6764;53.250;10.410;2022-10-16T10:11:53;3.00;;;1.00;;
13388;SDS011;6764;53.250;10.410;2022-10-16T10:14:23;5.28;;;1.00;;
13388;SDS011;6764;53.250;10.410;2022-10-16T10:17:09;4.57;;;1.42;;
13388;SDS011;6764;53.250;10.410;2022-10-16T10:27:50;3.42;;;1.10;;
13388;SDS011;6764;53.250;10.410;2022-10-16T10:30:26;2.88;;;1.30;;
13388;SDS011;6764;53.250;10.410;2022-10-16T10:33:14;2.22;;;1.02;;
13388;SDS011;6764;53.250;10.410;2022-10-16T10:36:49;4.85;;;1.17;;
13388;SDS011;6764;53.250;10.410;2022-10-16T10:47:12;4.22;;;1.30;;
13388;SDS011;6764;53.250;10.410;2022-10-16T10:52:34;3.90;;;1.10;;
13388;SDS011;6764;53.250;10.410;2022-10-16T10:55:27;3.33;;;1.35;;
13388;SDS011;6764;53.250;10.410;2022-10-16T11:03:27;9.95;;;1.58;;
13388;SDS011;6764;53.250;10.410;2022-10-16T11:06:11;2.63;;;1.05;;
13388;SDS011;6764;53.250;10.410;2022-10-16T11:14:29;4.00;;;1.20;;
13388;SDS011;6764;53.250;10.410;2022-10-16T11:17:04;1.55;;;1.05;;
13388;SDS011;6764;53.250;10.410;2022-10-16T11:19:50;3.08;;;1.20;;
13388;SDS011;6764;53.250;10.410;2022-10-16T11:22:23;3.45;;;1.70;;
13388;SDS011;6764;53.250;10.410;2022-10-16T11:27:41;4.22;;;1.50;;
13388;SDS011;6764;53.250;10.410;2022-10-16T11:32:56;2.60;;;1.23;;
13388;SDS011;6764;53.250;10.410;2022-10-16T11:38:43;3.20;;;1.30;;
13388;SDS011;6764;53.250;10.410;2022-10-16T11:49:58;2.45;;;1.15;;
13388;SDS011;6764;53.250;10.410;2022-10-16T11:55:39;2.13;;;1.38;;
13388;SDS011;6764;53.250;10.410;2022-10-16T11:58:13;2.70;;;1.45;;
13388;SDS011;6764;53.250;10.410;2022-10-16T12:00:58;2.35;;;1.20;;
13388;SDS011;6764;53.250;10.410;2022-10-16T12:07:07;3.38;;;1.40;;
13388;SDS011;6764;53.250;10.410;2022-10-16T12:09:09;5.38;;;1.60;;
13388;SDS011;6764;53.250;10.410;2022-10-16T12:11:41;7.35;;;1.92;;
13388;SDS011;6764;53.250;10.410;2022-10-16T12:16:37;2.65;;;1.30;;
13388;SDS011;6764;53.250;10.410;2022-10-16T12:19:24;4.10;;;1.63;;
13388;SDS011;6764;53.250;10.410;2022-10-16T12:21:52;2.85;;;1.30;;
13388;SDS011;6764;53.250;10.410;2022-10-16T12:24:22;3.25;;;1.63;;
13388;SDS011;6764;53.250;10.410;2022-10-16T12:27:27;2.83;;;1.30;;
13388;SDS011;6764;53.250;10.410;2022-10-16T12:30:04;3.20;;;1.50;;
13388;SDS011;6764;53.250;10.410;2022-10-16T12:32:33;9.00;;;1.92;;
13388;SDS011;6764;53.250;10.410;2022-10-16T12:35:04;3.25;;;1.60;;
13388;SDS011;6764;53.250;10.410;2022-10-16T12:37:33;2.33;;;1.40;;
13388;SDS011;6764;53.250;10.410;2022-10-16T12:40:11;2.70;;;1.35;;
13388;SDS011;6764;53.250;10.410;2022-10-16T12:42:40;2.90;;;1.20;;
13388;SDS011;6764;53.250;10.410;2022-10-16T12:45:26;2.78;;;1.75;;
13388;SDS011;6764;53.250;10.410;2022-10-16T12:47:56;4.80;;;1.60;;
13388;SDS011;6764;53.250;10.410;2022-10-16T12:52:58;3.70;;;1.30;;
13388;SDS011;6764;53.250;10.410;2022-10-16T12:55:25;3.35;;;1.50;;
13388;SDS011;6764;53.250;10.410;2022-10-16T13:06:39;4.13;;;1.52;;
13388;SDS011;6764;53.250;10.410;2022-10-16T13:09:31;4.68;;;1.50;;
13388;SDS011;6764;53.250;10.410;2022-10-16T13:18:29;2.28;;;1.45;;
13388;SDS011;6764;53.250;10.410;2022-10-16T13:24:14;4.20;;;1.40;;
13388;SDS011;6764;53.250;10.410;2022-10-16T13:26:57;4.05;;;1.50;;
13388;SDS011;6764;53.250;10.410;2022-10-16T13:29:53;4.47;;;1.40;;
13388;SDS011;6764;53.250;10.410;2022-10-16T13:32:28;6.03;;;1.63;;
13388;SDS011;6764;53.250;10.410;2022-10-16T13:34:55;4.43;;;1.42;;
13388;SDS011;6764;53.250;10.410;2022-10-16T13:37:24;5.18;;;2.20;;
13388;SDS011;6764;53.250;10.410;2022-10-16T13:39:50;3.67;;;1.55;;
13388;SDS011;6764;53.250;10.410;2022-10-16T13:42:23;3.17;;;1.40;;
13388;SDS011;6764;53.250;10.410;2022-10-16T13:44:51;2.40;;;1.70;;
13388;SDS011;6764;53.250;10.410;2022-10-16T13:47:20;2.42;;;1.30;;
13388;SDS011;6764;53.250;10.410;2022-10-16T13:49:58;5.60;;;1.92;;
13388;SDS011;6764;53.250;10.410;2022-10-16T13:52:29;2.40;;;1.38;;
13388;SDS011;6764;53.250;10.410;2022-10-16T13:54:55;2.53;;;1.30;;
13388;SDS011;6764;53.250;10.410;2022-10-16T13:57:22;6.88;;;1.63;;
13388;SDS011;6764;53.250;10.410;2022-10-16T13:59:50;3.30;;;1.52;;
13388;SDS011;6764;53.250;10.410;2022-10-16T14:05:02;2.65;;;1.52;;
13388;SDS011;6764;53.250;10.410;2022-10-16T14:07:30;2.83;;;1.15;;
13388;SDS011;6764;53.250;10.410;2022-10-16T14:10:00;3.75;;;1.40;;
13388;SDS011;6764;53.250;10.410;2022-10-16T14:12:28;4.32;;;1.40;;
13388;SDS011;6764;53.250;10.410;2022-10-16T14:14:54;9.70;;;2.42;;
13388;SDS011;6764;53.250;10.410;2022-10-16T14:19:51;2.70;;;1.30;;
13388;SDS011;6764;53.250;10.410;2022-10-16T14:28:30;2.45;;;1.48;;
13388;SDS011;6764;53.250;10.410;2022-10-16T14:30:54;2.38;;;1.35;;
13388;SDS011;6764;53.250;10.410;2022-10-16T14:33:23;2.95;;;1.60;;
13388;SDS011;6764;53.250;10.410;2022-10-16T14:36:06;2.97;;;1.42;;
13388;SDS011;6764;53.250;10.410;2022-10-16T14:38:40;2.55;;;1.67;;
13388;SDS011;6764;53.250;10.410;2022-10-16T14:41:12;4.43;;;1.48;;
13388;SDS011;6764;53.250;10.410;2022-10-16T14:43:42;2.75;;;1.70;;
13388;SDS011;6764;53.250;10.410;2022-10-16T14:46:20;5.88;;;1.98;;
13388;SDS011;6764;53.250;10.410;2022-10-16T14:48:51;3.58;;;2.00;;
13388;SDS011;6764;53.250;10.410;2022-10-16T14:51:24;4.55;;;1.67;;
13388;SDS011;6764;53.250;10.410;2022-10-16T14:53:51;2.55;;;1.40;;
13388;SDS011;6764;53.250;10.410;2022-10-16T14:56:18;5.25;;;1.80;;
13388;SDS011;6764;53.250;10.410;2022-10-16T14:58:49;5.47;;;1.60;;
13388;SDS011;6764;53.250;10.410;2022-10-16T15:01:15;3.28;;;1.70;;
13388;SDS011;6764;53.250;10.410;2022-10-16T15:03:42;2.85;;;1.60;;
13388;SDS011;6764;53.250;10.410;2022-10-16T15:06:11;6.32;;;2.20;;
13388;SDS011;6764;53.250;10.410;2022-10-16T15:08:38;2.53;;;1.70;;
13388;SDS011;6764;53.250;10.410;2022-10-16T15:11:04;4.53;;;1.60;;
13388;SDS011;6764;53.250;10.410;2022-10-16T15:13:32;4.78;;;1.73;;
13388;SDS011;6764;53.250;10.410;2022-10-16T15:15:58;4.43;;;1.88;;
13388;SDS011;6764;53.250;10.410;2022-10-16T15:18:23;4.90;;;1.70;;
13388;SDS011;6764;53.250;10.410;2022-10-16T15:20:50;7.75;;;1.60;;
13388;SDS011;6764;53.250;10.410;2022-10-16T15:23:19;4.07;;;1.80;;
13388;SDS011;6764;53.250;10.410;2022-10-16T15:25:47;5.38;;;1.83;;
13388;SDS011;6764;53.250;10.410;2022-10-16T15:28:14;3.80;;;1.65;;
13388;SDS011;6764;53.250;10.410;2022-10-16T15:30:41;4.95;;;1.90;;
13388;SDS011;6764;53.250;10.410;2022-10-16T15:33:14;4.30;;;1.67;;
13388;SDS011;6764;53.250;10.410;2022-10-16T15:35:41;4.60;;;2.03;;
13388;SDS011;6764;53.250;10.410;2022-10-16T15:38:11;6.43;;;1.92;;
13388;SDS011;6764;53.250;10.410;2022-10-16T15:40:38;3.22;;;1.50;;
13388;SDS011;6764;53.250;10.410;2022-10-16T15:43:05;4.20;;;1.63;;
13388;SDS011;6764;53.250;10.410;2022-10-16T15:45:31;5.18;;;1.65;;
13388;SDS011;6764;53.250;10.410;2022-10-16T15:47:56;2.20;;;1.55;;
13388;SDS011;6764;53.250;10.410;2022-10-16T15:50:22;3.50;;;1.83;;
13388;SDS011;6764;53.250;10.410;2022-10-16T15:52:47;4.07;;;1.92;;
13388;SDS011;6764;53.250;10.410;2022-10-16T15:55:14;3.80;;;1.52;;
13388;SDS011;6764;53.250;10.410;2022-10-16T15:57:40;3.55;;;1.65;;
13388;SDS011;6764;53.250;10.410;2022-10-16T16:00:11;5.28;;;1.90;;
13388;SDS011;6764;53.250;10.410;2022-10-16T16:02:39;3.40;;;1.80;;
13388;SDS011;6764;53.250;10.410;2022-10-16T16:05:06;7.15;;;1.90;;
13388;SDS011;6764;53.250;10.410;2022-10-16T16:07:36;2.97;;;1.75;;
13388;SDS011;6764;53.250;10.410;2022-10-16T16:10:03;3.38;;;1.80;;
13388;SDS011;6764;53.250;10.410;2022-10-16T16:12:30;5.30;;;1.70;;
13388;SDS011;6764;53.250;10.410;2022-10-16T16:14:56;8.27;;;1.92;;
13388;SDS011;6764;53.250;10.410;2022-10-16T16:17:22;4.45;;;2.15;;
13388;SDS011;6764;53.250;10.410;2022-10-16T16:19:48;5.10;;;2.70;;
13388;SDS011;6764;53.250;10.410;2022-10-16T16:22:14;5.78;;;2.50;;
13388;SDS011;6764;53.250;10.410;2022-10-16T16:24:39;5.22;;;1.70;;
13388;SDS011;6764;53.250;10.410;2022-10-16T16:27:05;6.70;;;1.80;;
13388;SDS011;6764;53.250;10.410;2022-10-16T16:29:30;9.02;;;2.47;;
13388;SDS011;6764;53.250;10.410;2022-10-16T16:31:56;4.65;;;1.90;;
13388;SDS011;6764;53.250;10.410;2022-10-16T16:34:24;4.20;;;1.75;;
13388;SDS011;6764;53.250;10.410;2022-10-16T16:36:51;4.80;;;2.10;;
13388;SDS011;6764;53.250;10.410;2022-10-16T16:39:16;6.63;;;2.33;;
13388;SDS011;6764;53.250;10.410;2022-10-16T16:41:42;4.25;;;2.05;;
13388;SDS011;6764;53.250;10.410;2022-10-16T16:44:09;3.63;;;2.08;;
13388;SDS011;6764;53.250;10.410;2022-10-16T16:46:36;4.22;;;2.22;;
13388;SDS011;6764;53.250;10.410;2022-10-16T16:49:04;6.00;;;2.58;;
13388;SDS011;6764;53.250;10.410;2022-10-16T16:51:30;6.57;;;2.70;;
13388;SDS011;6764;53.250;10.410;2022-10-16T16:53:55;5.28;;;2.50;;
13388;SDS011;6764;53.250;10.410;2022-10-16T16:56:21;5.13;;;2.60;;
13388;SDS011;6764;53.250;10.410;2022-10-16T16:58:48;4.72;;;2.53;;
13388;SDS011;6764;53.250;10.410;2022-10-16T17:01:15;5.57;;;3.75;;
13388;SDS011;6764;53.250;10.410;2022-10-16T17:03:42;5.32;;;3.00;;
13388;SDS011;6764;53.250;10.410;2022-10-16T17:06:12;6.22;;;3.03;;